Time;durP1;ratioP1;P1;durP2;ratioP2;P2;SDS_P1;SDS_P2;PMS_P1;PMS_P2;Temp;Humidity;BMP_temperature;BMP_pressure;BME280_temperature;BME280_humidity;BME280_pressure;Samples;Min_cycle;Max_cycle;Signal;HPM_P1;HPM_P2
2021/01/01 00:00:39;;;;;;;44.90;27.70;;;5.00;99.90;;;;;;5136764;27;20031;-67
2021/01/01 00:03:05;;;;;;;;;;;5.00;99.90;;;;;;5135882;27;20110;-67
2021/01/01 00:05:30;;;;;;;75.63;43.60;;;4.90;99.90;;;;;;5136960;27;19943;-67
2021/01/01 00:07:56;;;;;;;64.10;37.87;;;5.00;99.90;;;;;;5135160;27;20023;-67
2021/01/01 00:10:22;;;;;;;42.03;28.50;;;5.10;99.90;;;;;;5136696;27;20027;-69
2021/01/01 00:12:48;;;;;;;40.83;25.97;;;5.00;99.90;;;;;;5135000;27;20027;-68
2021/01/01 00:15:14;;;;;;;38.25;25.85;;;5.10;99.90;;;;;;5136690;27;20024;-67
2021/01/01 00:17:41;;;;;;;39.35;24.92;;;5.00;99.90;;;;;;5136739;27;20333;-67
2021/01/01 00:20:09;;;;;;;38.38;25.65;;;5.00;99.90;;;;;;5136628;27;20417;-68
2021/01/01 00:22:35;;;;;;;41.35;24.25;;;5.00;99.90;;;;;;5136198;27;20031;-68
2021/01/01 00:25:01;;;;;;;37.42;22.60;;;5.00;99.90;;;;;;5136087;27;20024;-68
2021/01/01 00:27:30;;;;;;;40.63;22.45;;;5.00;99.90;;;;;;5136001;27;20043;-66
2021/01/01 00:29:57;;;;;;;42.28;23.23;;;4.90;99.90;;;;;;5136162;27;20085;-67
2021/01/01 00:32:23;;;;;;;38.05;21.00;;;4.90;99.90;;;;;;5134547;27;20094;-67
2021/01/01 00:34:49;;;;;;;35.70;19.95;;;5.00;99.90;;;;;;5135937;27;20034;-67
2021/01/01 00:37:14;;;;;;;41.40;20.42;;;5.00;99.90;;;;;;5134660;27;20027;-68
2021/01/01 00:39:40;;;;;;;32.87;18.57;;;5.00;99.90;;;;;;5136024;27;20034;-67
2021/01/01 00:42:06;;;;;;;27.77;16.87;;;4.90;99.90;;;;;;5135959;27;20431;-67
2021/01/01 00:44:32;;;;;;;30.75;17.50;;;5.00;99.90;;;;;;5135831;27;20058;-68
2021/01/01 00:46:58;;;;;;;;;;;5.10;99.90;;;;;;5135796;27;20035;-67
2021/01/01 00:49:24;;;;;;;29.02;16.23;;;5.10;99.90;;;;;;5136179;27;19904;-68
2021/01/01 00:51:50;;;;;;;32.97;16.00;;;5.00;99.90;;;;;;5137065;27;20110;-67
2021/01/01 00:54:16;;;;;;;26.77;15.30;;;5.00;99.90;;;;;;5137049;27;20070;-68
2021/01/01 00:56:41;;;;;;;26.10;16.13;;;5.00;99.90;;;;;;5136604;27;20471;-68
2021/01/01 00:59:07;;;;;;;22.03;13.90;;;5.00;99.90;;;;;;5136796;27;20066;-67
2021/01/01 01:01:33;;;;;;;26.65;14.43;;;5.00;99.90;;;;;;5136156;27;20023;-68
2021/01/01 01:03:59;;;;;;;24.00;14.80;;;4.90;99.90;;;;;;5137241;27;20075;-68
2021/01/01 01:06:26;;;;;;;21.90;13.70;;;4.90;99.90;;;;;;5137616;27;20106;-68
2021/01/01 01:08:52;;;;;;;26.27;14.80;;;5.00;99.90;;;;;;5137443;27;20030;-67
2021/01/01 01:11:25;;;;;;;24.88;13.55;;;4.90;99.90;;;;;;5135676;27;20019;-67
2021/01/01 01:13:51;;;;;;;23.05;13.95;;;4.90;99.90;;;;;;5134070;27;20031;-68
2021/01/01 01:16:21;;;;;;;;;;;4.90;99.90;;;;;;5136125;27;20058;-67
2021/01/01 01:18:46;;;;;;;22.05;13.77;;;4.90;99.90;;;;;;5135276;27;19914;-67
2021/01/01 01:21:12;;;;;;;22.87;14.13;;;4.80;99.90;;;;;;5134851;27;20023;-68
2021/01/01 01:23:37;;;;;;;24.57;14.93;;;4.80;99.90;;;;;;5133760;27;20045;-67
2021/01/01 01:26:03;;;;;;;23.77;13.97;;;4.80;99.90;;;;;;5135033;27;20076;-67
2021/01/01 01:28:28;;;;;;;22.87;14.10;;;4.70;99.90;;;;;;5135125;27;20031;-68
2021/01/01 01:30:54;;;;;;;20.47;13.27;;;4.70;99.90;;;;;;5135191;27;20023;-67
2021/01/01 01:33:20;;;;;;;23.83;14.23;;;4.70;99.90;;;;;;5134823;27;20023;-67
2021/01/01 01:35:45;;;;;;;21.10;13.47;;;4.70;99.90;;;;;;5135047;27;20383;-67
2021/01/01 01:38:11;;;;;;;22.53;13.53;;;4.70;99.90;;;;;;5133818;27;20057;-68
2021/01/01 01:40:37;;;;;;;27.80;14.57;;;4.70;99.90;;;;;;5135154;27;20257;-68
2021/01/01 01:43:02;;;;;;;24.63;13.87;;;4.60;99.90;;;;;;5135272;27;20023;-67
2021/01/01 01:45:28;;;;;;;23.42;14.38;;;4.60;99.90;;;;;;5134320;27;20502;-67
2021/01/01 01:47:54;;;;;;;21.77;13.87;;;4.60;99.90;;;;;;5134577;27;20117;-67
2021/01/01 01:50:20;;;;;;;24.52;14.45;;;4.60;99.90;;;;;;5135596;27;20038;-67
2021/01/01 01:52:47;;;;;;;21.33;13.17;;;4.60;99.90;;;;;;5156580;22;20035;-71
2021/01/01 01:55:14;;;;;;;21.58;13.82;;;4.60;99.90;;;;;;5097286;28;20032;-73
2021/01/01 01:57:40;;;;;;;22.50;14.13;;;4.60;99.90;;;;;;5114510;28;20046;-73
2021/01/01 02:00:25;;;;;;;23.10;13.88;;;4.60;99.90;;;;;;5096888;28;20055;-73
2021/01/01 02:02:55;;;;;;;24.45;14.77;;;4.60;99.90;;;;;;5096251;28;20479;-72
2021/01/01 02:05:20;;;;;;;27.20;15.00;;;4.60;99.90;;;;;;5115374;28;20030;-73
2021/01/01 02:07:47;;;;;;;24.13;15.40;;;4.50;99.90;;;;;;5096585;28;20023;-73
2021/01/01 02:10:13;;;;;;;22.88;14.73;;;4.60;99.90;;;;;;5095946;28;20475;-73
2021/01/01 02:12:39;;;;;;;24.08;14.85;;;4.60;99.90;;;;;;5114730;28;20047;-73
2021/01/01 02:15:06;;;;;;;24.38;14.60;;;4.60;99.90;;;;;;5096693;28;20016;-72
2021/01/01 02:17:31;;;;;;;23.60;14.00;;;4.60;99.90;;;;;;5096528;28;20483;-72
2021/01/01 02:20:08;;;;;;;23.60;13.90;;;4.60;99.90;;;;;;5096158;28;20028;-73
2021/01/01 02:22:38;;;;;;;21.20;13.20;;;4.60;99.90;;;;;;5097220;28;20387;-73
2021/01/01 02:25:05;;;;;;;23.27;13.70;;;4.60;99.90;;;;;;5096165;28;20558;-72
2021/01/01 02:27:31;;;;;;;21.70;12.50;;;4.50;99.90;;;;;;5114137;28;20046;-72
2021/01/01 02:29:57;;;;;;;20.60;12.23;;;4.50;99.90;;;;;;5095467;28;20484;-72
2021/01/01 02:32:22;;;;;;;21.73;12.67;;;4.50;99.90;;;;;;5114403;28;20023;-72
2021/01/01 02:34:48;;;;;;;21.67;12.47;;;4.50;99.90;;;;;;5115402;28;20028;-73
2021/01/01 02:37:14;;;;;;;18.37;10.90;;;4.50;99.90;;;;;;5095941;28;20031;-73
2021/01/01 02:39:40;;;;;;;18.60;11.47;;;4.50;99.90;;;;;;5095574;28;20387;-73
2021/01/01 02:42:06;;;;;;;17.45;10.30;;;4.50;99.90;;;;;;5113780;28;20445;-73
2021/01/01 02:44:31;;;;;;;16.27;9.67;;;4.50;99.90;;;;;;5113213;28;20055;-72
2021/01/01 02:47:04;;;;;;;17.27;9.87;;;4.50;99.90;;;;;;5095811;28;20391;-72
2021/01/01 02:49:30;;;;;;;17.15;9.40;;;4.50;99.90;;;;;;5100212;28;20422;-72
2021/01/01 02:51:56;;;;;;;;;;;4.40;99.90;;;;;;5113822;28;20380;-72
2021/01/01 02:54:22;;;;;;;14.27;8.40;;;4.40;99.90;;;;;;5095242;28;19914;-72
2021/01/01 02:56:47;;;;;;;14.93;8.03;;;4.40;99.90;;;;;;5095003;28;20020;-73
2021/01/01 02:59:13;;;;;;;12.27;7.80;;;4.40;99.90;;;;;;5095111;28;20471;-72
2021/01/01 03:01:39;;;;;;;11.93;7.53;;;4.40;99.90;;;;;;5113484;28;20024;-72
2021/01/01 03:04:04;;;;;;;12.68;7.65;;;4.40;99.90;;;;;;5113734;28;20754;-72
2021/01/01 03:06:30;;;;;;;9.97;6.50;;;4.40;99.90;;;;;;5095672;28;20024;-72
2021/01/01 03:08:56;;;;;;;9.45;6.15;;;4.40;99.90;;;;;;5113319;28;20077;-72
2021/01/01 03:11:22;;;;;;;8.55;5.68;;;4.40;99.90;;;;;;5097841;28;20395;-73
2021/01/01 03:13:47;;;;;;;8.33;5.20;;;4.30;99.90;;;;;;5117256;28;20024;-73
2021/01/01 03:16:13;;;;;;;8.67;5.30;;;4.30;99.90;;;;;;5117697;28;20028;-72
2021/01/01 03:18:39;;;;;;;8.07;5.17;;;4.30;99.90;;;;;;5098562;28;20019;-72
2021/01/01 03:21:04;;;;;;;7.00;4.63;;;4.30;99.90;;;;;;5098423;28;20031;-72
2021/01/01 03:23:30;;;;;;;7.77;4.90;;;4.30;99.90;;;;;;5116779;28;20484;-72
2021/01/01 03:25:56;;;;;;;7.33;4.57;;;4.30;99.90;;;;;;5116510;28;20401;-72
2021/01/01 03:28:21;;;;;;;7.80;4.80;;;4.30;99.90;;;;;;5099151;28;20035;-73
2021/01/01 03:30:47;;;;;;;7.70;4.60;;;4.30;99.90;;;;;;5098761;28;20523;-72
2021/01/01 03:33:13;;;;;;;5.80;4.10;;;4.20;99.90;;;;;;5116620;28;20028;-72
2021/01/01 03:35:39;;;;;;;7.10;4.50;;;4.20;99.90;;;;;;5097926;28;20031;-72
2021/01/01 03:38:05;;;;;;;;;;;4.20;99.90;;;;;;5098232;28;20257;-72
2021/01/01 03:40:31;;;;;;;7.70;4.70;;;4.10;99.90;;;;;;5116113;28;20265;-72
2021/01/01 03:42:57;;;;;;;7.43;5.10;;;4.10;99.90;;;;;;5097653;28;20023;-72
2021/01/01 03:45:23;;;;;;;8.30;4.87;;;4.00;99.90;;;;;;5098099;28;20367;-72
2021/01/01 03:47:48;;;;;;;8.47;4.67;;;4.00;99.90;;;;;;5116338;28;20027;-72
2021/01/01 03:50:14;;;;;;;8.03;4.70;;;4.00;99.90;;;;;;5097837;28;20032;-73
2021/01/01 03:52:39;;;;;;;7.80;4.20;;;4.00;99.90;;;;;;5097520;28;20366;-72
2021/01/01 03:55:06;;;;;;;6.90;4.70;;;4.00;99.90;;;;;;5097677;28;20031;-73
2021/01/01 03:57:31;;;;;;;8.00;4.57;;;4.00;99.90;;;;;;5097471;28;20024;-72
2021/01/01 03:59:57;;;;;;;8.97;5.17;;;4.00;99.90;;;;;;5116126;28;20038;-73
2021/01/01 04:02:23;;;;;;;7.73;5.13;;;4.00;99.90;;;;;;5119562;28;20388;-73
2021/01/01 04:04:48;;;;;;;10.60;6.33;;;4.00;99.90;;;;;;5117778;28;20056;-73
2021/01/01 04:07:14;;;;;;;7.20;4.57;;;4.00;99.90;;;;;;5116499;28;20028;-72
2021/01/01 04:09:40;;;;;;;9.15;5.43;;;4.00;99.90;;;;;;5097785;28;20038;-71
2021/01/01 04:12:06;;;;;;;7.30;4.93;;;3.90;99.90;;;;;;5116206;28;20035;-72
2021/01/01 04:14:32;;;;;;;7.45;4.35;;;3.90;99.90;;;;;;5098011;28;20019;-72
2021/01/01 04:16:57;;;;;;;6.60;4.27;;;3.90;99.90;;;;;;5117428;28;20045;-72
2021/01/01 04:19:23;;;;;;;7.82;4.50;;;3.90;99.90;;;;;;5098392;28;20048;-72
2021/01/01 04:21:49;;;;;;;8.00;5.10;;;3.90;99.90;;;;;;5097489;28;20032;-72
2021/01/01 04:24:16;;;;;;;11.45;6.82;;;3.90;99.90;;;;;;5098304;28;20119;-72
2021/01/01 04:26:42;;;;;;;6.90;4.00;;;3.90;99.90;;;;;;5097678;28;20024;-72
2021/01/01 04:29:08;;;;;;;13.60;6.95;;;3.90;99.90;;;;;;5097441;28;20020;-72
2021/01/01 04:31:35;;;;;;;20.50;9.95;;;4.00;99.90;;;;;;5097245;28;20035;-72
2021/01/01 04:34:01;;;;;;;9.38;6.05;;;4.00;99.90;;;;;;5097307;28;20027;-72
2021/01/01 04:36:27;;;;;;;8.10;4.70;;;3.90;99.90;;;;;;5097472;28;20073;-72
2021/01/01 04:38:53;;;;;;;6.30;4.43;;;3.90;99.90;;;;;;5097192;28;20028;-73
2021/01/01 04:41:20;;;;;;;5.50;3.80;;;3.90;99.90;;;;;;5096976;28;20364;-72
2021/01/01 04:43:49;;;;;;;7.57;4.88;;;3.90;99.90;;;;;;5096780;28;20780;-72
2021/01/01 04:46:15;;;;;;;7.93;4.00;;;3.90;99.90;;;;;;5115157;28;20033;-73
2021/01/01 04:48:46;;;;;;;7.75;4.85;;;3.90;99.90;;;;;;5115286;28;20420;-73
2021/01/01 04:51:12;;;;;;;7.15;4.22;;;3.90;99.90;;;;;;5097435;28;20038;-73
2021/01/01 04:53:40;;;;;;;8.52;5.05;;;3.90;99.90;;;;;;5096477;28;20043;-72
2021/01/01 04:56:07;;;;;;;9.00;5.22;;;3.90;99.90;;;;;;5096660;28;20020;-72
2021/01/01 04:58:34;;;;;;;7.45;3.42;;;3.80;99.90;;;;;;5096833;28;20498;-72
2021/01/01 05:00:59;;;;;;;;;;;3.80;99.90;;;;;;5097146;28;20059;-72
2021/01/01 05:03:25;;;;;;;6.90;4.05;;;3.80;99.90;;;;;;5096424;28;19903;-72
2021/01/01 05:05:52;;;;;;;6.07;3.65;;;3.80;99.90;;;;;;5096462;28;20034;-73
2021/01/01 05:08:18;;;;;;;5.80;3.72;;;3.80;99.90;;;;;;5096292;28;20507;-72
2021/01/01 05:10:45;;;;;;;6.93;3.70;;;3.80;99.90;;;;;;5096290;28;20020;-72
2021/01/01 05:13:19;;;;;;;5.25;3.65;;;3.80;99.90;;;;;;5096173;28;20035;-72
2021/01/01 05:15:46;;;;;;;6.38;4.45;;;3.80;99.90;;;;;;5114501;28;20030;-73
2021/01/01 05:18:22;;;;;;;6.82;3.80;;;3.70;99.90;;;;;;5116953;28;20045;-72
2021/01/01 05:20:49;;;;;;;6.85;4.00;;;3.60;99.90;;;;;;5119129;28;20415;-72
2021/01/01 05:23:25;;;;;;;6.63;4.25;;;3.60;99.90;;;;;;5096324;28;20045;-72
2021/01/01 05:26:09;;;;;;;4.80;3.38;;;3.50;99.90;;;;;;5096220;28;20430;-72
2021/01/01 05:28:49;;;;;;;5.38;3.38;;;3.50;99.90;;;;;;5114547;28;20024;-72
2021/01/01 05:31:19;;;;;;;6.03;3.63;;;3.40;99.90;;;;;;5096029;28;20033;-72
2021/01/01 05:34:18;;;;;;;4.90;3.40;;;3.40;99.90;;;;;;5095505;28;20019;-72
2021/01/01 05:36:46;;;;;;;6.57;4.05;;;3.40;99.90;;;;;;5096378;28;20126;-73
2021/01/01 05:39:18;;;;;;;5.60;3.65;;;3.30;99.90;;;;;;5096081;28;20030;-72
2021/01/01 05:41:48;;;;;;;5.50;3.60;;;3.30;99.90;;;;;;5114448;28;20416;-72
2021/01/01 05:44:17;;;;;;;6.72;4.20;;;3.30;99.90;;;;;;5096522;28;20019;-72
2021/01/01 05:46:55;;;;;;;5.60;3.90;;;3.30;99.90;;;;;;5097058;28;20424;-72
2021/01/01 05:49:21;;;;;;;4.70;3.10;;;3.30;99.90;;;;;;5103411;28;20024;-73
2021/01/01 05:52:05;;;;;;;;;;;3.30;99.90;;;;;;5106017;28;20046;-73
2021/01/01 05:54:32;;;;;;;5.55;3.30;;;3.30;99.90;;;;;;5096924;28;19912;-73
2021/01/01 05:56:57;;;;;;;6.10;3.45;;;3.30;99.90;;;;;;5115181;28;20454;-72
2021/01/01 05:59:25;;;;;;;6.67;4.00;;;3.20;99.90;;;;;;5096733;28;20102;-73
2021/01/01 06:01:56;;;;;;;5.30;3.58;;;3.20;99.90;;;;;;5114113;28;20032;-73
2021/01/01 06:04:23;;;;;;;5.70;3.70;;;3.20;99.90;;;;;;5097787;28;20492;-73
2021/01/01 06:06:52;;;;;;;6.85;3.20;;;3.20;99.90;;;;;;5097028;28;20407;-73
2021/01/01 06:09:20;;;;;;;5.07;3.50;;;3.10;99.90;;;;;;5096470;28;20072;-73
2021/01/01 06:11:56;;;;;;;6.97;4.20;;;3.10;99.90;;;;;;5096116;28;20543;-73
2021/01/01 06:14:33;;;;;;;5.63;3.80;;;3.20;99.90;;;;;;5113874;28;20460;-72
2021/01/01 06:17:11;;;;;;;6.07;3.83;;;3.20;99.90;;;;;;5096871;28;20115;-72
2021/01/01 06:19:57;;;;;;;5.18;3.42;;;3.20;99.90;;;;;;5118365;28;20510;-73
2021/01/01 06:22:28;;;;;;;6.57;3.88;;;3.20;99.90;;;;;;5114667;28;20023;-73
2021/01/01 06:24:57;;;;;;;6.00;3.85;;;3.30;99.90;;;;;;5095481;28;20027;-73
2021/01/01 06:27:26;;;;;;;6.80;4.00;;;3.30;99.90;;;;;;5113857;28;20093;-72
2021/01/01 06:29:57;;;;;;;7.15;4.20;;;3.30;99.90;;;;;;5095837;28;20069;-72
2021/01/01 06:32:23;;;;;;;6.47;4.45;;;3.20;99.90;;;;;;5095293;28;20028;-72
2021/01/01 06:34:50;;;;;;;6.77;4.30;;;3.20;99.90;;;;;;5096400;28;20115;-72
2021/01/01 06:37:39;;;;;;;6.72;4.45;;;3.20;99.90;;;;;;5097117;28;20020;-72
2021/01/01 06:40:26;;;;;;;7.70;4.80;;;3.20;99.90;;;;;;5095787;28;20023;-72
2021/01/01 06:42:57;;;;;;;7.30;5.15;;;3.10;99.90;;;;;;5086861;28;20476;-72
2021/01/01 06:45:35;;;;;;;7.30;4.82;;;3.10;99.90;;;;;;5097300;28;20101;-73
2021/01/01 06:48:04;;;;;;;8.40;5.05;;;3.10;99.90;;;;;;5100606;28;20034;-73
2021/01/01 06:50:41;;;;;;;8.98;5.00;;;3.10;99.90;;;;;;5118397;28;20047;-73
2021/01/01 06:53:12;;;;;;;10.75;5.32;;;3.10;99.90;;;;;;5099418;28;20032;-73
2021/01/01 06:55:42;;;;;;;8.93;5.65;;;3.10;99.90;;;;;;5101279;28;20030;-73
2021/01/01 06:58:09;;;;;;;8.82;5.63;;;3.20;99.90;;;;;;5101979;28;20365;-73
2021/01/01 07:00:47;;;;;;;7.63;4.82;;;3.20;99.90;;;;;;5100643;28;20023;-72
2021/01/01 07:03:33;;;;;;;8.05;5.80;;;3.10;99.90;;;;;;5099991;28;20028;-73
2021/01/01 07:06:01;;;;;;;8.93;5.75;;;3.10;99.90;;;;;;5100404;28;20047;-72
2021/01/01 07:08:39;;;;;;;10.00;6.20;;;3.10;99.90;;;;;;5101084;28;20020;-73
2021/01/01 07:11:25;;;;;;;8.98;5.78;;;3.10;99.90;;;;;;5099778;28;20110;-72
2021/01/01 07:13:51;;;;;;;9.13;6.05;;;3.10;99.90;;;;;;5088903;28;20039;-72
2021/01/01 07:16:19;;;;;;;11.07;6.60;;;3.10;99.90;;;;;;5099251;28;20517;-73
2021/01/01 07:18:45;;;;;;;11.30;6.55;;;3.00;99.90;;;;;;5099353;28;20039;-73
2021/01/01 07:21:13;;;;;;;11.93;6.73;;;3.10;99.90;;;;;;5099490;28;20024;-73
2021/01/01 07:23:39;;;;;;;11.07;6.72;;;3.10;99.90;;;;;;5099295;28;20273;-73
2021/01/01 07:26:05;;;;;;;9.80;6.47;;;3.10;99.90;;;;;;5117453;28;20016;-73
2021/01/01 07:28:31;;;;;;;11.18;6.80;;;3.10;99.90;;;;;;5099696;28;20043;-73
2021/01/01 07:30:58;;;;;;;9.40;5.97;;;3.10;99.90;;;;;;5100110;28;20034;-73
2021/01/01 07:33:27;;;;;;;;;;;3.10;99.90;;;;;;5118178;28;20107;-72
2021/01/01 07:35:55;;;;;;;10.20;6.13;;;3.10;99.90;;;;;;5101045;28;19904;-73
2021/01/01 07:38:22;;;;;;;11.80;7.13;;;3.20;99.90;;;;;;5118150;28;20027;-73
2021/01/01 07:40:48;;;;;;;10.68;6.80;;;3.30;99.90;;;;;;5099360;28;20023;-73
2021/01/01 07:43:14;;;;;;;15.48;8.52;;;3.20;99.90;;;;;;5099504;28;20028;-73
2021/01/01 07:45:40;;;;;;;11.75;7.30;;;3.30;99.90;;;;;;5099367;28;20023;-73
2021/01/01 07:48:06;;;;;;;13.43;8.25;;;3.20;99.90;;;;;;5118876;28;20131;-72
2021/01/01 07:50:33;;;;;;;11.35;7.00;;;3.20;99.90;;;;;;5118714;28;20024;-72
2021/01/01 07:53:03;;;;;;;;;;;3.20;99.90;;;;;;5105302;28;20520;-73
2021/01/01 07:55:29;;;;;;;10.48;6.15;;;3.20;99.90;;;;;;5117786;28;20335;-74
2021/01/01 07:58:05;;;;;;;13.27;7.28;;;3.30;99.90;;;;;;5118977;28;20027;-73
2021/01/01 08:00:32;;;;;;;12.50;7.90;;;3.30;99.90;;;;;;5104698;28;20036;-73
2021/01/01 08:03:05;;;;;;;11.10;6.90;;;3.30;99.90;;;;;;5107259;28;20126;-74
2021/01/01 08:05:31;;;;;;;13.75;8.80;;;3.30;99.90;;;;;;5107395;28;20027;-73
2021/01/01 08:08:19;;;;;;;11.48;7.10;;;3.30;99.90;;;;;;5109888;28;20023;-74
2021/01/01 08:10:46;;;;;;;12.30;7.75;;;3.30;99.90;;;;;;5102717;28;20039;-73
2021/01/01 08:13:19;;;;;;;17.23;10.80;;;3.30;99.90;;;;;;5100613;28;20425;-73
2021/01/01 08:15:45;;;;;;;16.80;8.77;;;3.40;99.90;;;;;;5119678;28;20016;-73
2021/01/01 08:18:12;;;;;;;;;;;3.30;99.90;;;;;;5107889;28;20026;-73
2021/01/01 08:20:38;;;;;;;13.95;7.82;;;3.40;99.90;;;;;;5105385;28;19950;-72
2021/01/01 08:23:11;;;;;;;20.85;11.68;;;3.40;99.90;;;;;;5109406;28;20020;-72
2021/01/01 08:25:38;;;;;;;19.00;11.23;;;3.40;99.90;;;;;;5103265;28;20046;-73
2021/01/01 08:28:05;;;;;;;19.13;10.52;;;3.40;99.90;;;;;;5101076;28;20552;-73
2021/01/01 08:30:33;;;;;;;14.82;8.73;;;3.40;99.90;;;;;;5100412;28;20031;-73
2021/01/01 08:32:59;;;;;;;13.95;8.48;;;3.40;99.90;;;;;;5100194;28;20020;-75
2021/01/01 08:35:29;;;;;;;20.27;11.27;;;3.40;99.90;;;;;;5099066;28;20105;-73
2021/01/01 08:37:55;;;;;;;18.25;10.48;;;3.40;99.90;;;;;;5099711;28;20023;-74
2021/01/01 08:40:21;;;;;;;17.13;10.40;;;3.40;99.90;;;;;;5099225;28;20020;-73
2021/01/01 08:42:50;;;;;;;;;;;3.50;99.90;;;;;;5098290;28;20024;-73
2021/01/01 08:45:18;;;;;;;23.08;12.40;;;3.50;99.90;;;;;;5116493;28;19911;-73
2021/01/01 08:47:51;;;;;;;16.25;9.35;;;3.50;99.90;;;;;;5098625;28;20144;-73
2021/01/01 08:50:28;;;;;;;14.30;7.55;;;3.40;99.90;;;;;;5115270;28;20103;-73
2021/01/01 08:53:01;;;;;;;15.75;9.15;;;3.50;99.90;;;;;;5119028;28;20023;-74
2021/01/01 08:55:28;;;;;;;21.42;10.98;;;3.50;99.90;;;;;;5097488;28;20038;-73
2021/01/01 08:58:06;;;;;;;16.60;8.55;;;3.50;99.90;;;;;;5096988;28;20019;-73
2021/01/01 09:00:33;;;;;;;17.13;9.48;;;3.50;99.90;;;;;;5115441;28;20144;-74
2021/01/01 09:02:59;;;;;;;15.48;9.45;;;3.50;99.90;;;;;;5097205;28;20063;-74
2021/01/01 09:05:27;;;;;;;15.98;9.43;;;3.60;99.90;;;;;;5098236;28;20488;-73
2021/01/01 09:08:08;;;;;;;15.07;9.20;;;3.60;99.90;;;;;;5117531;28;20027;-73
2021/01/01 09:10:34;;;;;;;16.27;9.50;;;3.70;99.90;;;;;;5096767;28;20027;-74
2021/01/01 09:13:11;;;;;;;15.05;8.25;;;3.80;99.90;;;;;;5114577;28;20032;-73
2021/01/01 09:15:37;;;;;;;15.27;9.73;;;3.80;99.90;;;;;;5096338;28;20031;-73
2021/01/01 09:18:06;;;;;;;15.23;8.80;;;3.90;99.90;;;;;;5096596;28;20031;-73
2021/01/01 09:20:33;;;;;;;17.02;9.68;;;3.90;99.90;;;;;;5101982;28;20026;-73
2021/01/01 09:23:01;;;;;;;14.93;9.43;;;3.90;99.90;;;;;;5099039;28;20027;-72
2021/01/01 09:25:28;;;;;;;17.55;10.32;;;3.90;99.90;;;;;;5115083;28;20031;-73
2021/01/01 09:27:55;;;;;;;16.33;10.15;;;3.80;99.90;;;;;;5096356;28;20024;-73
2021/01/01 09:30:21;;;;;;;;;;;3.80;99.90;;;;;;5096658;28;20035;-73
2021/01/01 09:32:49;;;;;;;17.25;9.82;;;3.80;99.90;;;;;;5096094;28;20362;-73
2021/01/01 09:35:16;;;;;;;15.75;9.02;;;3.70;99.90;;;;;;5096011;28;20182;-75
2021/01/01 09:37:45;;;;;;;;;;;3.80;99.90;;;;;;5114860;28;20027;-74
2021/01/01 09:40:11;;;;;;;18.52;10.00;;;3.90;99.90;;;;;;5114961;28;19998;-74
2021/01/01 09:42:37;;;;;;;16.15;10.02;;;4.00;99.90;;;;;;5095968;28;20031;-74
2021/01/01 09:45:03;;;;;;;17.37;10.23;;;4.10;99.90;;;;;;5114470;28;20032;-72
2021/01/01 09:47:28;;;;;;;18.55;10.45;;;4.10;99.90;;;;;;5097027;28;20034;-73
2021/01/01 09:49:54;;;;;;;19.10;10.67;;;4.00;99.90;;;;;;5098403;28;20028;-74
2021/01/01 09:52:19;;;;;;;18.60;10.07;;;4.00;99.90;;;;;;5097295;28;20069;-73
2021/01/01 09:54:45;;;;;;;20.03;10.87;;;4.00;99.90;;;;;;5098143;28;20035;-74
2021/01/01 09:57:11;;;;;;;23.57;11.27;;;4.10;99.90;;;;;;5095821;28;20448;-73
2021/01/01 09:59:36;;;;;;;20.70;11.63;;;4.20;99.90;;;;;;5113888;28;20468;-73
2021/01/01 10:02:02;;;;;;;18.20;9.97;;;4.20;99.90;;;;;;5096014;28;20016;-74
2021/01/01 10:04:28;;;;;;;17.53;9.63;;;4.30;99.90;;;;;;5114183;28;20047;-73
2021/01/01 10:06:53;;;;;;;19.07;11.30;;;4.30;99.90;;;;;;5095963;28;20024;-73
2021/01/01 10:09:19;;;;;;;18.60;10.67;;;4.40;99.90;;;;;;5096194;28;20121;-72
2021/01/01 10:11:49;;;;;;;17.07;10.40;;;4.50;99.90;;;;;;5096266;28;20035;-73
2021/01/01 10:14:14;;;;;;;18.40;10.65;;;4.70;99.90;;;;;;5095877;28;20024;-74
2021/01/01 10:16:41;;;;;;;19.10;11.63;;;4.60;99.90;;;;;;5096320;28;20341;-73
2021/01/01 10:19:06;;;;;;;18.85;11.15;;;4.60;99.90;;;;;;5095710;28;20030;-74
2021/01/01 10:21:32;;;;;;;18.23;10.53;;;4.60;99.90;;;;;;5099346;28;20118;-74
2021/01/01 10:23:57;;;;;;;20.90;11.50;;;4.80;99.90;;;;;;5119209;28;20057;-75
2021/01/01 10:26:23;;;;;;;20.77;11.77;;;5.00;99.90;;;;;;5100091;28;20051;-74
2021/01/01 10:28:49;;;;;;;18.87;11.43;;;5.30;99.90;;;;;;5118691;28;20424;-74
2021/01/01 10:31:21;;;;;;;19.37;11.07;;;5.70;99.90;;;;;;5100354;28;20054;-74
2021/01/01 10:33:47;;;;;;;19.88;11.25;;;6.10;99.90;;;;;;5101498;28;20484;-73
2021/01/01 10:36:12;;;;;;;19.27;11.50;;;6.30;99.90;;;;;;5120765;28;20106;-75
2021/01/01 10:38:38;;;;;;;20.33;12.60;;;6.40;99.90;;;;;;5103930;28;20165;-74
2021/01/01 10:41:03;;;;;;;18.20;11.63;;;6.40;99.90;;;;;;5103041;28;20035;-75
2021/01/01 10:43:29;;;;;;;17.87;11.20;;;6.50;99.90;;;;;;5103819;28;20019;-75
2021/01/01 10:45:55;;;;;;;19.13;11.97;;;6.60;99.90;;;;;;5104294;28;20027;-75
2021/01/01 10:48:20;;;;;;;20.67;12.37;;;6.60;99.90;;;;;;5102725;28;20019;-75
2021/01/01 10:50:46;;;;;;;19.13;11.73;;;6.40;99.90;;;;;;5106552;28;20023;-74
2021/01/01 10:53:12;;;;;;;19.97;12.07;;;6.40;99.90;;;;;;5103670;28;20043;-75
2021/01/01 10:55:41;;;;;;;20.50;11.70;;;6.30;99.90;;;;;;5103610;28;20066;-75
2021/01/01 10:58:08;;;;;;;19.10;11.88;;;6.20;99.90;;;;;;5106654;28;20051;-75
2021/01/01 11:00:33;;;;;;;21.00;12.20;;;6.10;99.90;;;;;;5101837;28;20016;-75
2021/01/01 11:02:59;;;;;;;19.53;11.90;;;6.10;99.90;;;;;;5121550;28;20030;-75
2021/01/01 11:05:25;;;;;;;21.47;12.33;;;6.00;99.90;;;;;;5120093;28;20982;-76
2021/01/01 11:07:50;;;;;;;19.97;12.13;;;5.90;99.90;;;;;;5124418;28;20023;-75
2021/01/01 11:10:16;;;;;;;20.47;12.17;;;5.80;99.90;;;;;;5123943;28;20024;-75
2021/01/01 11:12:42;;;;;;;19.20;12.00;;;5.80;99.90;;;;;;5106932;28;20109;-76
2021/01/01 12:19:24;;;;;;;20.87;11.97;;;5.80;99.90;;;;;;5108337;28;20027;-75
2021/01/01 12:22:17;;;;;;;24.30;13.85;;;5.40;99.90;;;;;;5031498;28;20049;-75
2021/01/01 12:24:49;;;;;;;18.88;11.80;;;5.40;99.90;;;;;;5041326;28;20097;-75
2021/01/01 12:27:20;;;;;;;22.25;11.93;;;5.60;99.90;;;;;;5067143;28;20023;-74
2021/01/01 12:29:46;;;;;;;20.02;11.52;;;5.80;99.90;;;;;;5119478;28;20011;-75
2021/01/01 12:32:14;;;;;;;20.02;11.70;;;6.00;99.90;;;;;;5104554;28;20016;-69
2021/01/01 12:34:40;;;;;;;19.70;10.77;;;6.10;99.90;;;;;;5098475;28;20028;-69
2021/01/01 12:37:07;;;;;;;18.58;10.77;;;6.30;99.90;;;;;;5098237;28;20031;-69
2021/01/01 12:39:32;;;;;;;;;;;6.40;99.90;;;;;;5119441;28;20023;-75
2021/01/01 12:41:58;;;;;;;15.73;10.48;;;6.40;99.90;;;;;;5103237;28;19908;-75
2021/01/01 12:44:23;;;;;;;20.07;12.90;;;6.40;99.90;;;;;;5099197;28;20110;-74
2021/01/01 12:46:53;;;;;;;16.70;10.17;;;6.40;99.90;;;;;;5100191;28;20101;-75
2021/01/01 12:49:19;;;;;;;17.98;11.43;;;6.40;99.90;;;;;;5118868;28;20047;-75
2021/01/01 12:51:45;;;;;;;20.15;11.57;;;6.30;99.90;;;;;;5101337;28;20126;-75
2021/01/01 12:54:11;;;;;;;21.97;12.37;;;6.20;99.90;;;;;;5117851;28;20508;-76
2021/01/01 12:56:37;;;;;;;19.35;11.68;;;6.20;99.90;;;;;;5099401;28;20027;-74
2021/01/01 12:59:02;;;;;;;19.60;11.07;;;6.10;99.90;;;;;;5098052;28;20500;-74
2021/01/01 13:01:31;;;;;;;20.75;12.05;;;6.00;99.90;;;;;;5097928;28;20396;-75
2021/01/01 13:03:57;;;;;;;24.15;12.75;;;5.90;99.90;;;;;;5099091;28;20028;-75
2021/01/01 13:06:23;;;;;;;23.58;12.75;;;5.70;99.90;;;;;;5096830;28;20073;-75
2021/01/01 13:08:49;;;;;;;21.93;12.87;;;5.60;99.90;;;;;;5096465;28;20109;-75
2021/01/01 13:11:14;;;;;;;21.57;12.80;;;5.60;99.90;;;;;;5096581;28;20198;-74
2021/01/01 13:13:40;;;;;;;21.40;12.47;;;5.50;99.90;;;;;;5096822;28;20051;-74
2021/01/01 13:16:05;;;;;;;22.60;13.07;;;5.40;99.90;;;;;;5096451;28;20020;-74
2021/01/01 13:18:31;;;;;;;22.23;12.80;;;5.30;99.90;;;;;;5114934;28;20027;-74
2021/01/01 13:20:57;;;;;;;24.17;12.45;;;5.30;99.90;;;;;;5096595;28;20107;-74
2021/01/01 13:23:23;;;;;;;20.02;12.18;;;5.30;99.90;;;;;;5096236;28;20100;-74
2021/01/01 13:25:49;;;;;;;20.23;11.47;;;5.30;99.90;;;;;;5097200;28;20029;-74
2021/01/01 13:28:14;;;;;;;19.00;11.20;;;5.30;99.90;;;;;;5096956;28;20118;-73
2021/01/01 13:30:40;;;;;;;20.03;11.97;;;5.30;99.90;;;;;;5096847;28;20020;-74
2021/01/01 13:33:06;;;;;;;18.93;11.00;;;5.30;99.90;;;;;;5095987;28;20024;-74
2021/01/01 13:35:31;;;;;;;22.30;11.50;;;5.30;99.90;;;;;;5114701;28;20015;-74
2021/01/01 13:37:57;;;;;;;23.70;14.20;;;5.30;99.90;;;;;;5079378;28;20397;-72
2021/01/01 13:40:24;;;;;;;20.00;11.32;;;5.30;99.90;;;;;;5099111;28;20265;-73
2021/01/01 13:42:52;;;;;;;16.95;9.88;;;5.40;99.90;;;;;;5098900;28;20040;-74
2021/01/01 13:45:18;;;;;;;22.15;12.82;;;5.50;99.90;;;;;;5096989;28;20099;-74
2021/01/01 13:47:44;;;;;;;17.73;9.75;;;5.50;99.90;;;;;;5095678;28;20460;-74
2021/01/01 13:50:11;;;;;;;18.83;9.87;;;5.50;99.90;;;;;;5097158;28;20032;-74
2021/01/01 13:52:36;;;;;;;17.23;9.25;;;5.50;99.90;;;;;;5116112;28;20031;-75
2021/01/01 13:55:02;;;;;;;15.83;9.13;;;5.50;99.90;;;;;;5095737;28;20103;-71